No particular awareness of the weather is required.    There are no Weather-warnings

Webcam Vacarisses more information Webcam Vacarisses


Thunder radar more information blitzortung!


Rain radar more information rain snow radar


Visit our other weather sites:

Template documentation
and downloads

And another site



Weather Underground History page Text

Daily Summary for February 17, 2018 Units:  Metric    English   Both
« Previous Day
Next Day »
Daily Weekly Monthly Yearly Custom
  Current: High: Low: Average:
Temperature: 11.9 °C 17.1 °C 7.5 °C 11.5 °C
Dew Point: 10.1 °C 11.2 °C 6.8 °C 9.1 °C
Humidity: 89 % 96 % 67 % 86 %
Wind Speed: 0 km/h 4.8 km/h 0 km/h 0.5 km/h
Wind Gust: 0 km/h 16.1 km/h - -
Wind:Calm - - SW
Pressure: 1021.2 hPa 1021.2 hPa 1018.5 hPa -
Precipitation: 0.25 mm      
Historical Graphs
 
 
Tabular Data for February 17, 2018
Time Temperature Dew Point Pressure Wind Wind Speed Wind Gust Humidity Rainfall Rate (Hourly)
00:00 11.2 °C 9.4 °C 1020.5 hPa Calm     89 % 0 mm
00:05 11.1 °C 9.4 °C 1020.5 hPa Calm     89 % 0 mm
00:10 11.1 °C 9.4 °C 1020.2 hPa Calm     89 % 0 mm
00:15 11.1 °C 9.3 °C 1020.2 hPa Calm     89 % 0 mm
00:20 11.1 °C 9.3 °C 1020.2 hPa Calm     89 % 0 mm
00:25 11 °C 9.3 °C 1020.2 hPa Calm     89 % 0 mm
00:30 10.9 °C 9.2 °C 1020.2 hPa Calm     89 % 0 mm
00:35 10.7 °C 9 °C 1020.2 hPa Calm     89 % 0 mm
00:40 10.6 °C 8.9 °C 1020.2 hPa Calm     89 % 0 mm
00:45 10.6 °C 9 °C 1020.2 hPa Calm     90 % 0 mm
00:50 10.6 °C 9.1 °C 1020.2 hPa Calm     90 % 0 mm
00:55 10.7 °C 9.3 °C 1020.2 hPa Calm     91 % 0 mm
01:00 10.7 °C 9.1 °C 1020.2 hPa Calm     90 % 0 mm
01:05 10.7 °C 9.1 °C 1020.2 hPa Calm   1.6 km/h 90 % 0 mm
01:10 10.7 °C 9.1 °C 1020.2 hPa Calm   1.6 km/h 90 % 0 mm
01:15 10.6 °C 9 °C 1020.2 hPa Calm   1.6 km/h 90 % 0 mm
01:20 10.4 °C 8.9 °C 1020.2 hPa Calm   1.6 km/h 90 % 0 mm
01:25 10.2 °C 8.7 °C 1020.2 hPa Calm   1.6 km/h 90 % 0 mm
01:30 10.2 °C 8.8 °C 1020.2 hPa Calm     91 % 0 mm
01:35 10.2 °C 8.8 °C 1020.2 hPa Calm     91 % 0 mm
01:40 10.2 °C 8.7 °C 1019.9 hPa Calm     91 % 0 mm
01:45 10.1 °C 8.7 °C 1019.9 hPa Calm     91 % 0 mm
01:50 10.1 °C 8.9 °C 1019.9 hPa Calm     92 % 0 mm
01:55 10.1 °C 8.9 °C 1019.9 hPa Calm   1.6 km/h 92 % 0 mm
02:00 10.1 °C 8.8 °C 1019.9 hPa Calm     92 % 0 mm
02:05 10 °C 8.8 °C 1019.9 hPa Calm     92 % 0 mm
02:10 10 °C 8.8 °C 1019.9 hPa Calm   1.6 km/h 92 % 0 mm
02:15 9.9 °C 8.7 °C 1019.9 hPa Calm     92 % 0 mm
02:20 9.9 °C 8.7 °C 1019.5 hPa Calm     92 % 0 mm
02:25 9.8 °C 8.6 °C 1019.9 hPa Calm     92 % 0 mm
02:30 9.8 °C 8.6 °C 1019.5 hPa Calm     92 % 0 mm
02:35 9.7 °C 8.5 °C 1019.5 hPa Calm     92 % 0 mm
02:40 9.7 °C 8.4 °C 1019.5 hPa Calm     92 % 0 mm
02:45 9.6 °C 8.4 °C 1019.5 hPa Calm     92 % 0 mm
02:50 9.6 °C 8.3 °C 1019.5 hPa Calm     92 % 0 mm
02:55 9.4 °C 8.2 °C 1019.5 hPa Calm     92 % 0 mm
03:00 9.3 °C 8 °C 1019.5 hPa Calm     92 % 0 mm
03:05 9.2 °C 7.9 °C 1019.5 hPa Calm     92 % 0 mm
03:10 9.1 °C 7.9 °C 1019.5 hPa Calm     92 % 0 mm
03:15 9.1 °C 8.1 °C 1019.5 hPa Calm   1.6 km/h 93 % 0 mm
03:20 9.1 °C 8 °C 1019.5 hPa Calm   1.6 km/h 93 % 0 mm
03:25 9 °C 7.9 °C 1019.2 hPa Calm     93 % 0 mm
03:30 8.9 °C 7.8 °C 1019.2 hPa Calm   1.6 km/h 93 % 0 mm
03:35 8.8 °C 7.8 °C 1019.2 hPa Calm   1.6 km/h 93 % 0 mm
03:40 8.8 °C 7.7 °C 1019.2 hPa Calm     93 % 0 mm
03:45 8.8 °C 7.7 °C 1019.2 hPa Calm   1.6 km/h 93 % 0 mm
03:50 8.7 °C 7.7 °C 1019.2 hPa Calm   1.6 km/h 93 % 0 mm
03:55 8.6 °C 7.6 °C 1019.2 hPa Calm   1.6 km/h 93 % 0 mm
04:00 8.6 °C 7.5 °C 1019.2 hPa Calm   1.6 km/h 93 % 0 mm
04:05 8.5 °C 7.4 °C 1018.8 hPa Calm     93 % 0 mm
04:10 8.5 °C 7.6 °C 1018.8 hPa Calm   1.6 km/h 94 % 0 mm
04:15 8.6 °C 7.7 °C 1018.8 hPa Calm     94 % 0 mm
04:20 8.7 °C 7.8 °C 1018.8 hPa Calm     94 % 0 mm
04:25 8.8 °C 7.9 °C 1018.8 hPa Calm     94 % 0 mm
04:30 8.8 °C 7.9 °C 1018.8 hPa Calm     94 % 0 mm
04:35 8.8 °C 7.9 °C 1018.8 hPa Calm     94 % 0 mm
04:40 8.9 °C 7.9 °C 1018.8 hPa Calm     94 % 0 mm
04:45 8.9 °C 7.9 °C 1018.8 hPa Calm     94 % 0 mm
04:50 8.8 °C 7.9 °C 1018.8 hPa Calm   1.6 km/h 94 % 0 mm
04:55 8.7 °C 7.8 °C 1018.8 hPa Calm   1.6 km/h 94 % 0 mm
05:00 8.7 °C 7.7 °C 1018.5 hPa Calm     94 % 0 mm
05:05 8.6 °C 7.7 °C 1018.5 hPa Calm     94 % 0 mm
05:10 8.6 °C 7.7 °C 1018.5 hPa Calm   1.6 km/h 94 % 0 mm
05:15 8.5 °C 7.6 °C 1018.5 hPa Calm   1.6 km/h 94 % 0 mm
05:20 8.4 °C 7.5 °C 1018.5 hPa Calm   1.6 km/h 94 % 0 mm
05:25 8.3 °C 7.4 °C 1018.5 hPa Calm   1.6 km/h 94 % 0 mm
05:30 8.3 °C 7.5 °C 1018.5 hPa Calm     95 % 0 mm
05:35 8.3 °C 7.6 °C 1018.5 hPa Calm   1.6 km/h 95 % 0 mm
05:40 8.3 °C 7.5 °C 1018.5 hPa Calm   1.6 km/h 95 % 0 mm
05:45 8.3 °C 7.5 °C 1018.5 hPa Calm     95 % 0 mm
05:50 8.3 °C 7.6 °C 1018.5 hPa Calm     95 % 0 mm
05:55 8.4 °C 7.7 °C 1018.5 hPa Calm     95 % 0 mm
06:00 8.5 °C 7.7 °C 1018.5 hPa Calm   1.6 km/h 95 % 0 mm
06:05 8.4 °C 7.7 °C 1018.5 hPa Calm   1.6 km/h 95 % 0 mm
06:10 8.4 °C 7.7 °C 1018.5 hPa Calm     95 % 0 mm
06:15 8.5 °C 7.7 °C 1018.5 hPa Calm     95 % 0 mm
06:20 8.5 °C 7.7 °C 1018.5 hPa Calm     95 % 0 mm
06:25 8.4 °C 7.7 °C 1018.8 hPa Calm     95 % 0 mm
06:30 8.4 °C 7.7 °C 1018.8 hPa Calm   1.6 km/h 95 % 0 mm
06:35 8.4 °C 7.6 °C 1018.8 hPa Calm     95 % 0 mm
06:40 8.3 °C 7.6 °C 1018.8 hPa Calm     95 % 0 mm
06:45 8.3 °C 7.6 °C 1018.5 hPa Calm   1.6 km/h 95 % 0 mm
06:50 8.3 °C 7.5 °C 1018.8 hPa Calm   1.6 km/h 95 % 0 mm
06:55 8.2 °C 7.4 °C 1018.8 hPa Calm     95 % 0 mm
07:00 8.1 °C 7.3 °C 1018.8 hPa Calm   1.6 km/h 95 % 0 mm
07:05 7.9 °C 7.2 °C 1018.8 hPa Calm   1.6 km/h 95 % 0 mm
07:10 7.9 °C 7.2 °C 1018.5 hPa Calm     95 % 0 mm
07:15 7.9 °C 7.2 °C 1018.8 hPa Calm   1.6 km/h 95 % 0 mm
07:20 8 °C 7.4 °C 1018.8 hPa Calm     96 % 0 mm
07:25 8 °C 7.2 °C 1018.8 hPa Calm   1.6 km/h 95 % 0 mm
07:30 7.8 °C 7.1 °C 1018.8 hPa Calm     95 % 0 mm
07:35 7.7 °C 6.9 °C 1018.8 hPa Calm     95 % 0 mm
07:40 7.8 °C 7.2 °C 1018.8 hPa Calm   4.8 km/h 96 % 0 mm
07:45 7.8 °C 7.2 °C 1018.8 hPa Calm   1.6 km/h 96 % 0 mm
07:50 7.8 °C 7.2 °C 1018.8 hPa Calm   1.6 km/h 96 % 0 mm
07:55 8 °C 7.4 °C 1018.8 hPa Calm   6.4 km/h 96 % 0 mm
08:00 7.9 °C 7.2 °C 1018.8 hPa Calm   1.6 km/h 95 % 0 mm
08:05 7.7 °C 6.9 °C 1018.8 hPa Calm   1.6 km/h 95 % 0 mm
08:10 7.6 °C 6.9 °C 1018.8 hPa Calm   1.6 km/h 95 % 0 mm
08:15 7.6 °C 6.8 °C 1018.8 hPa Calm     95 % 0 mm
08:20 7.5 °C 6.8 °C 1018.8 hPa Calm     95 % 0 mm
08:25 7.6 °C 6.8 °C 1018.8 hPa Calm   3.2 km/h 95 % 0 mm
08:30 7.7 °C 7.1 °C 1018.8 hPa Calm   3.2 km/h 96 % 0 mm
08:35 7.8 °C 7 °C 1018.8 hPa Calm   1.6 km/h 95 % 0 mm
08:40 7.7 °C 6.9 °C 1018.8 hPa Calm     95 % 0 mm
08:45 7.7 °C 6.9 °C 1018.8 hPa Calm   1.6 km/h 95 % 0 mm
08:50 7.8 °C 7 °C 1018.8 hPa Calm   1.6 km/h 95 % 0 mm
08:55 7.9 °C 7.2 °C 1018.8 hPa Calm   3.2 km/h 95 % 0 mm
09:00 8 °C 7.2 °C 1018.8 hPa Calm   1.6 km/h 95 % 0 mm
09:05 8.2 °C 7.4 °C 1018.8 hPa Calm   3.2 km/h 95 % 0 mm
09:10 8.3 °C 7.6 °C 1018.8 hPa Calm   1.6 km/h 95 % 0 mm
09:15 8.3 °C 7.4 °C 1019.2 hPa Calm   1.6 km/h 94 % 0 mm
09:20 8.5 °C 7.6 °C 1019.2 hPa Calm     94 % 0 mm
09:25 8.6 °C 7.7 °C 1019.2 hPa Calm   1.6 km/h 94 % 0 mm
09:30 8.6 °C 7.7 °C 1019.2 hPa Calm   3.2 km/h 94 % 0 mm
09:35 8.7 °C 7.6 °C 1019.2 hPa Calm   1.6 km/h 93 % 0 mm
09:40 8.8 °C 7.8 °C 1019.2 hPa WSW 1.6 km/h 3.2 km/h 93 % 0 mm
09:45 9.1 °C 8 °C 1019.2 hPa West 1.6 km/h 6.4 km/h 93 % 0 mm
09:55 9.7 °C 8.2 °C 1019.2 hPa NNW 3.2 km/h 9.7 km/h 90 % 0 mm
10:00 9.9 °C 8.2 °C 1019.2 hPa North 1.6 km/h 8 km/h 89 % 0 mm
10:10 10.2 °C 8.3 °C 1019.2 hPa NNW 1.6 km/h 4.8 km/h 88 % 0 mm
10:15 10.4 °C 8.4 °C 1019.2 hPa Calm   3.2 km/h 87 % 0 mm
10:20 10.7 °C 8.6 °C 1019.2 hPa Calm   3.2 km/h 87 % 0 mm
10:25 10.9 °C 8.7 °C 1019.2 hPa WNW 1.6 km/h 3.2 km/h 86 % 0 mm
10:35 11.3 °C 8.7 °C 1019.5 hPa NNW 1.6 km/h 6.4 km/h 84 % 0 mm
10:40 11.2 °C 8.4 °C 1019.5 hPa NNW 3.2 km/h 11.3 km/h 83 % 0 mm
10:45 11.2 °C 8.4 °C 1019.5 hPa NNW 3.2 km/h 9.7 km/h 83 % 0 mm
10:55 11.7 °C 8.9 °C 1019.5 hPa North 1.6 km/h 4.8 km/h 83 % 0 mm
11:00 12.1 °C 9.2 °C 1019.9 hPa Calm   3.2 km/h 83 % 0 mm
11:05 12.6 °C 9.6 °C 1019.9 hPa Calm   1.6 km/h 82 % 0 mm
11:10 12.8 °C 9.4 °C 1019.9 hPa Calm   3.2 km/h 80 % 0 mm
11:15 12.8 °C 9.3 °C 1019.9 hPa Calm   1.6 km/h 79 % 0 mm
11:20 12.9 °C 9.4 °C 1019.9 hPa WSW 1.6 km/h 3.2 km/h 79 % 0 mm
11:25 13.1 °C 9.6 °C 1019.9 hPa Calm   3.2 km/h 79 % 0 mm
11:30 13.7 °C 9.9 °C 1019.9 hPa Calm   1.6 km/h 78 % 0 mm
11:35 14.3 °C 10.1 °C 1019.9 hPa Calm   3.2 km/h 76 % 0 mm
11:40 14.6 °C 10 °C 1019.9 hPa Calm   3.2 km/h 74 % 0 mm
11:45 14.7 °C 9.9 °C 1019.9 hPa SW 1.6 km/h 3.2 km/h 73 % 0 mm
11:50 15 °C 10.2 °C 1019.5 hPa Calm   1.6 km/h 73 % 0 mm
11:55 15.3 °C 10.5 °C 1019.9 hPa Calm   1.6 km/h 73 % 0 mm
12:00 15.8 °C 10.7 °C 1019.5 hPa Calm   1.6 km/h 72 % 0 mm
12:05 16.4 °C 10.9 °C 1019.5 hPa Calm   3.2 km/h 70 % 0 mm
12:10 16.7 °C 10.7 °C 1019.5 hPa Calm   1.6 km/h 68 % 0 mm
12:15 16.7 °C 10.7 °C 1019.5 hPa Calm   1.6 km/h 68 % 0 mm
12:20 16.6 °C 10.9 °C 1019.5 hPa Calm   1.6 km/h 69 % 0 mm
12:25 16.8 °C 10.8 °C 1019.5 hPa Calm   1.6 km/h 68 % 0 mm
12:30 16.8 °C 10.9 °C 1019.5 hPa Calm   1.6 km/h 68 % 0 mm
12:35 16.9 °C 10.9 °C 1019.5 hPa Calm   1.6 km/h 68 % 0 mm
12:40 16.9 °C 10.9 °C 1019.5 hPa Calm   1.6 km/h 68 % 0 mm
12:45 16.9 °C 11 °C 1019.5 hPa Calm   1.6 km/h 68 % 0 mm
12:50 17.1 °C 10.9 °C 1019.5 hPa Calm   1.6 km/h 67 % 0 mm
12:55 17.1 °C 10.9 °C 1019.5 hPa Calm   1.6 km/h 67 % 0 mm
13:00 16.9 °C 11 °C 1019.5 hPa Calm   3.2 km/h 68 % 0 mm
13:10 16.9 °C 11.1 °C 1019.2 hPa Calm   1.6 km/h 69 % 0 mm
13:15 16.8 °C 11.1 °C 1019.5 hPa Calm   1.6 km/h 69 % 0 mm
13:20 16.7 °C 11 °C 1019.2 hPa Calm   3.2 km/h 69 % 0 mm
13:25 16.6 °C 11.1 °C 1019.2 hPa Calm   3.2 km/h 70 % 0 mm
13:30 16.4 °C 11.2 °C 1019.5 hPa Calm   1.6 km/h 71 % 0 mm
13:35 16.3 °C 11.1 °C 1019.2 hPa Calm   3.2 km/h 71 % 0 mm
13:40 16.3 °C 10.8 °C 1019.2 hPa SSW 1.6 km/h 6.4 km/h 70 % 0 mm
13:45 16.2 °C 10.5 °C 1019.2 hPa SW 1.6 km/h 8 km/h 69 % 0 mm
13:50 16 °C 10.3 °C 1019.2 hPa Calm   6.4 km/h 69 % 0 mm
13:55 15.8 °C 10.4 °C 1019.2 hPa NNE 1.6 km/h 12.9 km/h 70 % 0 mm
14:00 15.5 °C 10.3 °C 1019.2 hPa South 1.6 km/h 8 km/h 71 % 0 mm
14:05 15.3 °C 10.3 °C 1019.2 hPa Calm   4.8 km/h 72 % 0 mm
14:10 15.2 °C 10.2 °C 1019.2 hPa SW 1.6 km/h 8 km/h 72 % 0 mm
14:15 15.1 °C 10.3 °C 1018.8 hPa SSW 3.2 km/h 6.4 km/h 73 % 0 mm
14:20 15 °C 10.4 °C 1019.2 hPa SSW 1.6 km/h 6.4 km/h 74 % 0 mm
14:25 14.9 °C 10.3 °C 1019.2 hPa SSW 1.6 km/h 8 km/h 74 % 0 mm
14:30 14.8 °C 10.4 °C 1019.2 hPa SSW 1.6 km/h 6.4 km/h 75 % 0 mm
14:35 14.7 °C 10.5 °C 1019.2 hPa SSW 1.6 km/h 6.4 km/h 76 % 0 mm
14:40 14.6 °C 10.4 °C 1019.2 hPa Calm   3.2 km/h 76 % 0 mm
14:45 14.6 °C 10.4 °C 1019.2 hPa SSW 1.6 km/h 6.4 km/h 76 % 0 mm
14:50 14.6 °C 10.4 °C 1019.2 hPa SSW 3.2 km/h 9.7 km/h 76 % 0 mm
14:55 14.5 °C 10.3 °C 1019.2 hPa Calm   9.7 km/h 76 % 0 mm
15:00 14.6 °C 10.4 °C 1019.2 hPa SW 1.6 km/h 9.7 km/h 76 % 0 mm
15:05 14.5 °C 10.3 °C 1019.2 hPa SSW 1.6 km/h 9.7 km/h 76 % 0 mm
15:10 14.5 °C 10.3 °C 1019.2 hPa SSW 1.6 km/h 8 km/h 76 % 0 mm
15:15 14.6 °C 10.4 °C 1019.2 hPa South 1.6 km/h 4.8 km/h 76 % 0 mm
15:20 14.6 °C 10.4 °C 1019.2 hPa Calm   6.4 km/h 76 % 0 mm
15:25 14.6 °C 10.4 °C 1019.5 hPa Calm   1.6 km/h 76 % 0 mm
15:30 14.6 °C 10.4 °C 1019.2 hPa Calm   4.8 km/h 76 % 0 mm
15:35 14.6 °C 10.4 °C 1019.5 hPa Calm   3.2 km/h 76 % 0 mm
15:40 14.5 °C 10.3 °C 1019.2 hPa NW 1.6 km/h 6.4 km/h 76 % 0 mm
15:45 14.4 °C 10.4 °C 1019.5 hPa SSW 1.6 km/h 6.4 km/h 77 % 0 mm
15:50 14.4 °C 10.6 °C 1019.5 hPa Calm   8 km/h 78 % 0 mm
15:55 14.4 °C 10.9 °C 1019.5 hPa Calm   4.8 km/h 80 % 0 mm
16:00 14.2 °C 10.8 °C 1019.5 hPa SW 1.6 km/h 4.8 km/h 80 % 0 mm
16:05 14.1 °C 10.6 °C 1019.5 hPa SW 1.6 km/h 9.7 km/h 80 % 0 mm
16:10 13.9 °C 10.5 °C 1019.5 hPa Calm   6.4 km/h 80 % 0 mm
16:15 13.8 °C 10.6 °C 1019.5 hPa SSW 3.2 km/h 4.8 km/h 81 % 0 mm
16:20 13.7 °C 10.4 °C 1019.5 hPa Calm   3.2 km/h 81 % 0 mm
16:25 13.6 °C 10.4 °C 1019.5 hPa Calm   6.4 km/h 81 % 0 mm
16:30 13.6 °C 10.3 °C 1019.5 hPa South 1.6 km/h 6.4 km/h 81 % 0 mm
16:35 13.6 °C 10.6 °C 1019.5 hPa SSW 1.6 km/h 4.8 km/h 82 % 0 mm
16:40 13.7 °C 10.7 °C 1019.5 hPa Calm   1.6 km/h 82 % 0 mm
16:45 13.9 °C 10.7 °C 1019.5 hPa Calm   3.2 km/h 81 % 0 mm
16:50 14.2 °C 10.6 °C 1019.5 hPa SSW 3.2 km/h 16.1 km/h 79 % 0 mm
16:55 14.3 °C 10.7 °C 1019.5 hPa SSW 1.6 km/h 9.7 km/h 79 % 0 mm
17:00 14.4 °C 10.7 °C 1019.5 hPa SSW 1.6 km/h 9.7 km/h 78 % 0 mm
17:05 14.3 °C 10.7 °C 1019.5 hPa Calm   4.8 km/h 79 % 0 mm
17:10 14.2 °C 10.6 °C 1019.5 hPa WSW 1.6 km/h 4.8 km/h 79 % 0 mm
17:15 14 °C 10.6 °C 1019.5 hPa Calm   6.4 km/h 80 % 0 mm
17:20 13.9 °C 10.7 °C 1019.5 hPa Calm   3.2 km/h 81 % 0 mm
17:25 13.7 °C 10.5 °C 1019.5 hPa SW 3.2 km/h 8 km/h 81 % 0 mm
17:30 13.6 °C 10.6 °C 1019.9 hPa SW 1.6 km/h 6.4 km/h 82 % 0 mm
17:35 13.5 °C 10.5 °C 1019.5 hPa SSW 3.2 km/h 6.4 km/h 82 % 0 mm
17:40 13.4 °C 10.4 °C 1019.9 hPa SW 3.2 km/h 6.4 km/h 82 % 0 mm
17:45 13.4 °C 10.6 °C 1019.9 hPa SSW 3.2 km/h 6.4 km/h 83 % 0 mm
17:50 13.3 °C 10.5 °C 1019.9 hPa SW 1.6 km/h 4.8 km/h 83 % 0 mm
17:55 13.3 °C 10.5 °C 1019.9 hPa SW 1.6 km/h 6.4 km/h 83 % 0 mm
18:00 13.3 °C 10.4 °C 1019.9 hPa SSW 3.2 km/h 4.8 km/h 83 % 0 mm
18:05 13.2 °C 10.4 °C 1019.9 hPa SSW 1.6 km/h 4.8 km/h 83 % 0 mm
18:10 13.2 °C 10.6 °C 1019.9 hPa Calm   4.8 km/h 84 % 0 mm
18:15 13.2 °C 10.6 °C 1020.2 hPa SSW 1.6 km/h 6.4 km/h 84 % 0 mm
18:20 13.2 °C 10.5 °C 1020.2 hPa SSW 3.2 km/h 6.4 km/h 84 % 0 mm
18:25 13.1 °C 10.6 °C 1020.2 hPa Calm   4.8 km/h 85 % 0 mm
18:30 13.1 °C 10.6 °C 1020.2 hPa Calm   4.8 km/h 85 % 0 mm
18:35 13 °C 10.6 °C 1020.5 hPa SSW 1.6 km/h 4.8 km/h 85 % 0 mm
18:40 13 °C 10.6 °C 1020.5 hPa SSW 1.6 km/h 3.2 km/h 85 % 0 mm
18:45 12.9 °C 10.5 °C 1020.5 hPa SSW 1.6 km/h 6.4 km/h 85 % 0 mm
18:50 12.9 °C 10.5 °C 1020.5 hPa SSW 1.6 km/h 6.4 km/h 85 % 0 mm
18:55 12.9 °C 10.4 °C 1020.5 hPa SSW 1.6 km/h 6.4 km/h 85 % 0 mm
19:00 12.8 °C 10.4 °C 1020.5 hPa SSW 3.2 km/h 6.4 km/h 85 % 0 mm
19:05 12.8 °C 10.6 °C 1020.5 hPa Calm   6.4 km/h 86 % 0 mm
19:10 12.8 °C 10.5 °C 1020.5 hPa SSW 1.6 km/h 8 km/h 86 % 0 mm
19:15 12.7 °C 10.4 °C 1020.9 hPa SSW 1.6 km/h 4.8 km/h 86 % 0 mm
19:20 12.6 °C 10.3 °C 1020.9 hPa SSW 4.8 km/h 12.9 km/h 86 % 0 mm
19:25 12.4 °C 9.9 °C 1020.9 hPa SSW 3.2 km/h 9.7 km/h 85 % 0 mm
19:30 12.3 °C 10.1 °C 1020.9 hPa SSW 1.6 km/h 3.2 km/h 86 % 0 mm
19:35 12.3 °C 10 °C 1020.9 hPa Calm   3.2 km/h 86 % 0 mm
19:40 12.2 °C 10.1 °C 1020.9 hPa Calm   4.8 km/h 87 % 0 mm
19:45 12.1 °C 9.9 °C 1020.9 hPa SSW 3.2 km/h 4.8 km/h 87 % 0 mm
19:50 12 °C 9.9 °C 1020.9 hPa Calm   3.2 km/h 87 % 0 mm
19:55 11.9 °C 10 °C 1020.9 hPa Calm   1.6 km/h 88 % 0 mm
20:00 11.9 °C 10 °C 1021.2 hPa Calm   3.2 km/h 88 % 0 mm
20:05 11.9 °C 10 °C 1020.9 hPa Calm   1.6 km/h 88 % 0 mm
20:10 11.9 °C 10 °C 1021.2 hPa Calm     88 % 0 mm
20:15 11.9 °C 10 °C 1021.2 hPa Calm     88 % 0 mm
20:20 11.9 °C 10 °C 1021.2 hPa Calm   1.6 km/h 88 % 0 mm
20:25 11.9 °C 9.9 °C 1021.2 hPa Calm     88 % 0 mm
20:30 11.9 °C 10.1 °C 1021.2 hPa Calm     89 % 0 mm
Olesa de Montserrat-Weather station
Compliments of Weather Underground - 3.75 mb

Script developed by  Jim McMurry - jmcmurry@mwt.net Adapted for the template by  Wim van der Kuil - Leuven-Template.eu

You find our weather info also at:

UK Metoffice

European Weather Network

WeatherCloud

Weather Underground

AWEKAS

WeatherlinkIP

Citizen Weather Observer Program (CWOP)

HAMweather, WeatherForYou, PWS Weather

Equipment we use:

Weather-station
Davis Vantage Vue

Weather-program
Weather Display

Weather-server
My Computer

Provider
My provider

Davis Vantage Vue

Weather Display

My Computer

My provider